sensor_id;sensor_type;location;lat;lon;timestamp;pressure;altitude;pressure_sealevel;temperature;humidity
55014;BME280;40916;51.632;5.552;2023-04-01T00:00:50;987.200375551511;;;9.157208673621401;0
55014;BME280;40916;51.632;5.552;2023-04-01T00:01:49;987.1466653024722;;;9.164113300852854;0
55014;BME280;40916;51.632;5.552;2023-04-01T00:02:49;987.2103271979539;;;9.171017467690998;0
55014;BME280;40916;51.632;5.552;2023-04-01T00:03:49;987.1689188795859;;;9.184824420780185;0
55014;BME280;40916;51.632;5.552;2023-04-01T00:04:49;987.0856156926799;;;9.171017467690998;0
55014;BME280;40916;51.632;5.552;2023-04-01T00:05:50;987.1906804727545;;;9.164113300852854;0
55014;BME280;40916;51.632;5.552;2023-04-01T00:06:50;987.2336407617704;;;9.177921174284055;0
55014;BME280;40916;51.632;5.552;2023-04-01T00:07:50;987.2302106934986;;;9.198629534073962;0
55014;BME280;40916;51.632;5.552;2023-04-01T00:08:50;987.2349446382956;;;9.184824420780185;0
55014;BME280;40916;51.632;5.552;2023-04-01T00:09:50;987.2569532330683;;;9.184824420780185;0
55014;BME280;40916;51.632;5.552;2023-04-01T00:10:50;987.2716256319545;;;9.184824420780185;0
55014;BME280;40916;51.632;5.552;2023-04-01T00:11:50;987.1932922907044;;;9.177921174284055;0
55014;BME280;40916;51.632;5.552;2023-04-01T00:12:50;987.1026501492606;;;9.164113300852854;0
55014;BME280;40916;51.632;5.552;2023-04-01T00:13:50;987.2957403836118;;;9.157208673621401;0
55014;BME280;40916;51.632;5.552;2023-04-01T00:14:51;987.2873549608511;;;9.171017467690998;0
55014;BME280;40916;51.632;5.552;2023-04-01T00:15:51;987.2800189811798;;;9.171017467690998;0
55014;BME280;40916;51.632;5.552;2023-04-01T00:16:51;987.2973023345701;;;9.184824420780185;0
55014;BME280;40916;51.632;5.552;2023-04-01T00:17:51;987.2886614272511;;;9.177921174284055;0
55014;BME280;40916;51.632;5.552;2023-04-01T00:18:51;987.155547394113;;;9.191727207327478;0
55014;BME280;40916;51.632;5.552;2023-04-01T00:19:51;987.2276084409864;;;9.184824420780185;0
55014;BME280;40916;51.632;5.552;2023-04-01T00:20:51;987.2496170343364;;;9.184824420780185;0
55014;BME280;40916;51.632;5.552;2023-04-01T00:21:51;987.2616790340762;;;9.171017467690998;0
55014;BME280;40916;51.632;5.552;2023-04-01T00:22:51;987.3132780164265;;;9.191727207327478;0
55014;BME280;40916;51.632;5.552;2023-04-01T00:23:52;987.2679575320551;;;9.184824420780185;0
55014;BME280;40916;51.632;5.552;2023-04-01T00:24:52;987.2312765395817;;;9.184824420780185;0
55014;BME280;40916;51.632;5.552;2023-04-01T00:25:52;987.277657292021;;;9.177921174284055;0
55014;BME280;40916;51.632;5.552;2023-04-01T00:26:52;987.1982636564924;;;9.184824420780185;0
55014;BME280;40916;51.632;5.552;2023-04-01T00:27:52;987.3035748996012;;;9.198629534073962;0
55014;BME280;40916;51.632;5.552;2023-04-01T00:28:52;987.31091132282;;;9.198629534073962;0
55014;BME280;40916;51.632;5.552;2023-04-01T00:29:52;987.2571870346954;;;9.205531401167605;0
55014;BME280;40916;51.632;5.552;2023-04-01T00:30:52;987.2386127371279;;;9.184824420780185;0
55014;BME280;40916;51.632;5.552;2023-04-01T00:31:52;987.3020269216162;;;9.171017467690998;0
55014;BME280;40916;51.632;5.552;2023-04-01T00:32:52;987.2886614272511;;;9.177921174284055;0
55014;BME280;40916;51.632;5.552;2023-04-01T00:33:53;987.3083066374693;;;9.184824420780185;0
55014;BME280;40916;51.632;5.552;2023-04-01T00:34:53;987.3096098599294;;;9.191727207327478;0
55014;BME280;40916;51.632;5.552;2023-04-01T00:35:53;987.2459489351484;;;9.184824420780185;0
55014;BME280;40916;51.632;5.552;2023-04-01T00:36:53;987.3119747386729;;;9.184824420780185;0
55014;BME280;40916;51.632;5.552;2023-04-01T00:37:53;987.2383635931577;;;9.164113300852854;0
55014;BME280;40916;51.632;5.552;2023-04-01T00:38:53;987.2959975179972;;;9.177921174284055;0
55014;BME280;40916;51.632;5.552;2023-04-01T00:39:53;987.3240348663202;;;9.171017467690998;0
55014;BME280;40916;51.632;5.552;2023-04-01T00:40:56;987.2666531578578;;;9.177921174284055;0
55014;BME280;40916;51.632;5.552;2023-04-01T00:41:53;987.2886614272511;;;9.177921174284055;0
55014;BME280;40916;51.632;5.552;2023-04-01T00:42:54;987.3119747386729;;;9.184824420780185;0
55014;BME280;40916;51.632;5.552;2023-04-01T00:44:11;987.2910229508643;;;9.171017467690998;0
55014;BME280;40916;51.632;5.552;2023-04-01T00:44:54;987.4110135159838;;;9.184824420780185;0
55014;BME280;40916;51.632;5.552;2023-04-01T00:45:54;987.3436821194066;;;9.177921174284055;0
55014;BME280;40916;51.632;5.552;2023-04-01T00:46:54;987.3559919623631;;;9.184824420780185;0
55014;BME280;40916;51.632;5.552;2023-04-01T00:47:54;987.3572959036393;;;9.191727207327478;0
55014;BME280;40916;51.632;5.552;2023-04-01T00:48:54;987.4149225494635;;;9.205531401167605;0
55014;BME280;40916;51.632;5.552;2023-04-01T00:49:54;987.4183497251487;;;9.184824420780185;0
55014;BME280;40916;51.632;5.552;2023-04-01T00:50:55;987.4023708871073;;;9.177921174284055;0
55014;BME280;40916;51.632;5.552;2023-04-01T00:51:55;987.4560826241701;;;9.171017467690998;0
55014;BME280;40916;51.632;5.552;2023-04-01T00:52:55;987.3617622373944;;;9.157208673621401;0
55014;BME280;40916;51.632;5.552;2023-04-01T00:53:55;987.5197485135589;;;9.177921174284055;0
55014;BME280;40916;51.632;5.552;2023-04-01T00:54:56;987.4927625841729;;;9.171017467690998;0
55014;BME280;40916;51.632;5.552;2023-04-01T00:55:56;987.4497914355171;;;9.157208673621401;0
55014;BME280;40916;51.632;5.552;2023-04-01T00:56:55;987.4804474365658;;;9.164113300852854;0
55014;BME280;40916;51.632;5.552;2023-04-01T00:57:55;987.4987871427146;;;9.164113300852854;0
55014;BME280;40916;51.632;5.552;2023-04-01T00:58:56;987.473111554936;;;9.164113300852854;0
55014;BME280;40916;51.632;5.552;2023-04-01T00:59:55;987.5527609928716;;;9.177921174284055;0
55014;BME280;40916;51.632;5.552;2023-04-01T01:00:56;987.4461235508987;;;9.157208673621401;0
55014;BME280;40916;51.632;5.552;2023-04-01T01:01:56;987.5304849271129;;;9.157208673621401;0
55014;BME280;40916;51.632;5.552;2023-04-01T01:02:56;987.5511764650017;;;9.15030358584836;0
55014;BME280;40916;51.632;5.552;2023-04-01T01:03:56;987.5011418326213;;;9.157208673621401;0
55014;BME280;40916;51.632;5.552;2023-04-01T01:06:04;987.5207947940052;;;9.164113300852854;0
55014;BME280;40916;51.632;5.552;2023-04-01T01:06:59;987.3544264739662;;;9.157208673621401;0
55014;BME280;40916;51.632;5.552;2023-04-01T01:07:58;987.4911744918585;;;9.143398037385378;0
55014;BME280;40916;51.632;5.552;2023-04-01T01:09:01;987.5464703925717;;;9.164113300852854;0
55014;BME280;40916;51.632;5.552;2023-04-01T01:09:58;987.5111025686199;;;9.171017467690998;0
55014;BME280;40916;51.632;5.552;2023-04-01T01:10:57;987.5184385632286;;;9.171017467690998;0
55014;BME280;40916;51.632;5.552;2023-04-01T01:11:58;987.5367785518249;;;9.171017467690998;0
55014;BME280;40916;51.632;5.552;2023-04-01T01:12:58;987.5087443559219;;;9.177921174284055;0
55014;BME280;40916;51.632;5.552;2023-04-01T01:13:58;987.5391345066743;;;9.164113300852854;0
55014;BME280;40916;51.632;5.552;2023-04-01T01:15:02;987.5391345066743;;;9.164113300852854;0
55014;BME280;40916;51.632;5.552;2023-04-01T01:15:58;987.5194812657894;;;9.157208673621401;0
55014;BME280;40916;51.632;5.552;2023-04-01T01:16:58;987.4974739463433;;;9.157208673621401;0
55014;BME280;40916;51.632;5.552;2023-04-01T01:17:58;987.6101385358483;;;9.171017467690998;0
55014;BME280;40916;51.632;5.552;2023-04-01T01:18:58;987.6751173446876;;;9.184824420780185;0
55014;BME280;40916;51.632;5.552;2023-04-01T01:21:04;987.5354665639034;;;9.164113300852854;0
55014;BME280;40916;51.632;5.552;2023-04-01T01:22:02;987.5721459969468;;;9.164113300852854;0
55014;BME280;40916;51.632;5.552;2023-04-01T01:23:03;987.6211425375416;;;9.171017467690998;0
55014;BME280;40916;51.632;5.552;2023-04-01T01:24:08;987.588130535662;;;9.171017467690998;0
55014;BME280;40916;51.632;5.552;2023-04-01T01:25:03;987.7044622524821;;;9.184824420780185;0
55014;BME280;40916;51.632;5.552;2023-04-01T01:26:01;987.6848110061521;;;9.177921174284055;0
55014;BME280;40916;51.632;5.552;2023-04-01T01:27:00;987.5965069174579;;;9.157208673621401;0
55014;BME280;40916;51.632;5.552;2023-04-01T01:28:00;987.6431505441294;;;9.171017467690998;0
55014;BME280;40916;51.632;5.552;2023-04-01T01:29:01;987.6211425375416;;;9.171017467690998;0
55014;BME280;40916;51.632;5.552;2023-04-01T01:30:00;987.584462536046;;;9.171017467690998;0
55014;BME280;40916;51.632;5.552;2023-04-01T01:30:59;987.6271651687398;;;9.164113300852854;0
55014;BME280;40916;51.632;5.552;2023-04-01T01:32:00;987.554844297747;;;9.15030358584836;0
55014;BME280;40916;51.632;5.552;2023-04-01T01:33:01;987.593872251626;;;9.143398037385378;0
55014;BME280;40916;51.632;5.552;2023-04-01T01:34:04;987.633185817579;;;9.157208673621401;0
55014;BME280;40916;51.632;5.552;2023-04-01T01:35:06;987.6295179270335;;;9.157208673621401;0
55014;BME280;40916;51.632;5.552;2023-04-01T01:35:59;987.6478573809467;;;9.157208673621401;0
55014;BME280;40916;51.632;5.552;2023-04-01T01:37:00;987.6072231694491;;;9.136492028084046;0
55014;BME280;40916;51.632;5.552;2023-04-01T01:37:59;987.6892345403371;;;9.143398037385378;0
55014;BME280;40916;51.632;5.552;2023-04-01T01:39:00;987.6562245082537;;;9.143398037385378;0
55014;BME280;40916;51.632;5.552;2023-04-01T01:40:00;987.6488889468724;;;9.143398037385378;0
55014;BME280;40916;51.632;5.552;2023-04-01T01:40:59;987.69158085166;;;9.136492028084046;0
55014;BME280;40916;51.632;5.552;2023-04-01T01:42:01;987.6892345403371;;;9.143398037385378;0
55014;BME280;40916;51.632;5.552;2023-04-01T01:43:00;987.6782311952425;;;9.143398037385378;0
55014;BME280;40916;51.632;5.552;2023-04-01T01:44:00;987.7332479313841;;;9.143398037385378;0
55014;BME280;40916;51.632;5.552;2023-04-01T01:45:00;987.6929023222724;;;9.143398037385378;0
55014;BME280;40916;51.632;5.552;2023-04-01T01:46:01;987.6975929605788;;;9.129585557795888;0
55014;BME280;40916;51.632;5.552;2023-04-01T01:47:00;987.7526080477988;;;9.129585557795888;0
55014;BME280;40916;51.632;5.552;2023-04-01T01:48:01;987.7232666646294;;;9.129585557795888;0
55014;BME280;40916;51.632;5.552;2023-04-01T01:49:00;987.8359459102074;;;9.143398037385378;0
55014;BME280;40916;51.632;5.552;2023-04-01T01:50:00;987.7869417853171;;;9.136492028084046;0
55014;BME280;40916;51.632;5.552;2023-04-01T01:51:00;987.7476144914101;;;9.122678626372366;0
55014;BME280;40916;51.632;5.552;2023-04-01T01:52:00;987.8186261876664;;;9.129585557795888;0
55014;BME280;40916;51.632;5.552;2023-04-01T01:53:02;987.8919797214493;;;9.129585557795888;0
55014;BME280;40916;51.632;5.552;2023-04-01T01:54:01;987.8393049766233;;;9.122678626372366;0
55014;BME280;40916;51.632;5.552;2023-04-01T01:55:01;987.8319697350803;;;9.122678626372366;0
55014;BME280;40916;51.632;5.552;2023-04-01T01:56:01;987.8269732498425;;;9.115771233664876;0
55014;BME280;40916;51.632;5.552;2023-04-01T01:57:02;987.8683196885563;;;9.101955063803263;0
55014;BME280;40916;51.632;5.552;2023-04-01T01:58:02;987.8943193033093;;;9.122678626372366;0
55014;BME280;40916;51.632;5.552;2023-04-01T01:59:02;987.8426474997301;;;9.101955063803263;0
55014;BME280;40916;51.632;5.552;2023-04-01T02:00:03;987.880655281793;;;9.108863379524749;0
55014;BME280;40916;51.632;5.552;2023-04-01T02:01:03;987.8829895133499;;;9.101955063803263;0
55014;BME280;40916;51.632;5.552;2023-04-01T02:02:02;987.8856543083125;;;9.115771233664876;0
55014;BME280;40916;51.632;5.552;2023-04-01T02:03:02;987.8633174634091;;;9.095046286351614;0
55014;BME280;40916;51.632;5.552;2023-04-01T02:04:02;987.8449804623696;;;9.095046286351614;0
55014;BME280;40916;51.632;5.552;2023-04-01T02:05:02;987.8486478623405;;;9.095046286351614;0
55014;BME280;40916;51.632;5.552;2023-04-01T02:06:03;987.847311548261;;;9.088137047020947;0
55014;BME280;40916;51.632;5.552;2023-04-01T02:07:02;987.8866569698446;;;9.101955063803263;0
55014;BME280;40916;51.632;5.552;2023-04-01T02:08:03;987.9513351096407;;;9.095046286351614;0
55014;BME280;40916;51.632;5.552;2023-04-01T02:09:03;987.8546462378741;;;9.088137047020947;0
55014;BME280;40916;51.632;5.552;2023-04-01T02:10:03;987.8889892698419;;;9.095046286351614;0
55014;BME280;40916;51.632;5.552;2023-04-01T02:11:03;987.8559826626376;;;9.095046286351614;0
55014;BME280;40916;51.632;5.552;2023-04-01T02:12:03;987.9403329001286;;;9.095046286351614;0
55014;BME280;40916;51.632;5.552;2023-04-01T02:13:05;987.7969595878837;;;9.074317182126808;0
55014;BME280;40916;51.632;5.552;2023-04-01T02:14:05;988.0113505611811;;;9.101955063803263;0
55014;BME280;40916;51.632;5.552;2023-04-01T02:16:05;987.9729868821388;;;9.074317182126808;0
55014;BME280;40916;51.632;5.552;2023-04-01T02:17:04;987.983988597095;;;9.074317182126808;0
55014;BME280;40916;51.632;5.552;2023-04-01T02:18:03;987.9629637542342;;;9.0604954679287;0
55014;BME280;40916;51.632;5.552;2023-04-01T02:19:03;988.0422923848545;;;9.053583916967828;0
55014;BME280;40916;51.632;5.552;2023-04-01T02:20:04;988.022607325577;;;9.046671903233442;0
55014;BME280;40916;51.632;5.552;2023-04-01T02:21:03;987.9996350321136;;;9.0604954679287;0
55014;BME280;40916;51.632;5.552;2023-04-01T02:22:04;988.0482764578918;;;9.046671903233442;0
55014;BME280;40916;51.632;5.552;2023-04-01T02:23:04;988.0262743441236;;;9.046671903233442;0
55014;BME280;40916;51.632;5.552;2023-04-01T02:24:04;988.0125688245072;;;9.032846486846836;0
55014;BME280;40916;51.632;5.552;2023-04-01T02:25:05;987.9901651442543;;;9.012104887730807;0
55014;BME280;40916;51.632;5.552;2023-04-01T02:26:04;988.0648592437834;;;9.019019217573653;0
55014;BME280;40916;51.632;5.552;2023-04-01T02:27:04;987.9718314417767;;;9.012104887730807;0
55014;BME280;40916;51.632;5.552;2023-04-01T02:28:05;987.9824134811588;;;8.991359115581503;0
55014;BME280;40916;51.632;5.552;2023-04-01T02:29:04;988.0044129303632;;;8.991359115581503;0
55014;BME280;40916;51.632;5.552;2023-04-01T02:30:05;988.0456777019219;;;8.977526280466932;0
55014;BME280;40916;51.632;5.552;2023-04-01T02:31:04;988.0333087407176;;;8.970609166355473;0
55014;BME280;40916;51.632;5.552;2023-04-01T02:32:05;988.0401881328698;;;8.949855036004035;0
55014;BME280;40916;51.632;5.552;2023-04-01T02:33:05;987.9861068404841;;;8.936016624253913;0
55014;BME280;40916;51.632;5.552;2023-04-01T02:34:05;987.9713545197411;;;8.880644352392874;0
55014;BME280;40916;51.632;5.552;2023-04-01T02:35:05;988.1069850622773;;;8.880644352392874;0
55014;BME280;40916;51.632;5.552;2023-04-01T02:36:05;988.0886566011112;;;8.880644352392874;0
55014;BME280;40916;51.632;5.552;2023-04-01T02:37:05;988.0616015953011;;;8.873720720628288;0
55014;BME280;40916;51.632;5.552;2023-04-01T02:38:05;988.0799297750757;;;8.873720720628288;0
55014;BME280;40916;51.632;5.552;2023-04-01T02:39:05;988.1656361579005;;;8.880644352392874;0
55014;BME280;40916;51.632;5.552;2023-04-01T02:40:06;988.1577751344058;;;8.859872056918732;0
55014;BME280;40916;51.632;5.552;2023-04-01T02:41:06;988.1233838813853;;;8.852947024671717;0
55014;BME280;40916;51.632;5.552;2023-04-01T02:42:06;988.0619297699293;;;8.83909555863762;0
55014;BME280;40916;51.632;5.552;2023-04-01T02:43:06;988.1045074501343;;;8.832169124548102;0
55014;BME280;40916;51.632;5.552;2023-04-01T02:44:06;988.0737770466471;;;8.825242222875211;0
55014;BME280;40916;51.632;5.552;2023-04-01T02:45:06;988.061371714689;;;8.818314853467562;0
55014;BME280;40916;51.632;5.552;2023-04-01T02:46:06;988.1772447810891;;;8.811387016173715;0
55014;BME280;40916;51.632;5.552;2023-04-01T02:47:06;988.1340978128504;;;8.797529937321304;0
55014;BME280;40916;51.632;5.552;2023-04-01T02:48:06;987.9883285558815;;;8.783670985105111;0
55014;BME280;40916;51.632;5.552;2023-04-01T02:49:06;988.167083072574;;;8.797529937321304;0
55014;BME280;40916;51.632;5.552;2023-04-01T02:50:07;988.1459199124171;;;8.783670985105111;0
55014;BME280;40916;51.632;5.552;2023-04-01T02:51:07;988.1202654906269;;;8.783670985105111;0
55014;BME280;40916;51.632;5.552;2023-04-01T02:52:07;988.080773053465;;;8.769810158311216;0
55014;BME280;40916;51.632;5.552;2023-04-01T02:53:07;988.2346949594787;;;8.769810158311216;0
55014;BME280;40916;51.632;5.552;2023-04-01T02:54:07;988.1247507195956;;;8.769810158311216;0
55014;BME280;40916;51.632;5.552;2023-04-01T02:55:07;988.1109048802182;;;8.755947455724652;0
55014;BME280;40916;51.632;5.552;2023-04-01T02:56:07;988.2222740487633;;;8.762879041567995;0
55014;BME280;40916;51.632;5.552;2023-04-01T02:57:07;988.1833876342788;;;8.769810158311216;0
55014;BME280;40916;51.632;5.552;2023-04-01T02:58:07;988.1190400583947;;;8.742082876129398;0
55014;BME280;40916;51.632;5.552;2023-04-01T02:59:07;988.1768694067223;;;8.755947455724652;0
55014;BME280;40916;51.632;5.552;2023-04-01T03:00:08;988.2208457790257;;;8.755947455724652;0
55014;BME280;40916;51.632;5.552;2023-04-01T03:02:08;988.2640134414357;;;8.769810158311216;0
55014;BME280;40916;51.632;5.552;2023-04-01T03:03:08;988.2194157210383;;;8.749015400629151;0
55014;BME280;40916;51.632;5.552;2023-04-01T03:04:08;988.227543834623;;;8.73514988207322;0
55014;BME280;40916;51.632;5.552;2023-04-01T03:05:08;988.2582943426246;;;8.742082876129398;0
55014;BME280;40916;51.632;5.552;2023-04-01T03:06:09;988.2758162683681;;;8.755947455724652;0
55014;BME280;40916;51.632;5.552;2023-04-01T03:07:09;988.1835694566303;;;8.73514988207322;0
55014;BME280;40916;51.632;5.552;2023-04-01T03:08:08;988.2751827633432;;;8.73514988207322;0
55014;BME280;40916;51.632;5.552;2023-04-01T03:09:09;988.2371016732293;;;8.728216418308389;0
55014;BME280;40916;51.632;5.552;2023-04-01T03:10:09;988.2210064395028;;;8.7212824846826;0
55014;BME280;40916;51.632;5.552;2023-04-01T03:11:09;988.2364479659379;;;8.707413207238645;0
55014;BME280;40916;51.632;5.552;2023-04-01T03:12:09;988.2085742265007;;;8.714348081043497;0
55014;BME280;40916;51.632;5.552;2023-04-01T03:13:09;988.2488822503858;;;8.714348081043497;0
55014;BME280;40916;51.632;5.552;2023-04-01T03:14:09;988.2891902885872;;;8.714348081043497;0
55014;BME280;40916;51.632;5.552;2023-04-01T03:15:09;988.2891902885872;;;8.714348081043497;0
55014;BME280;40916;51.632;5.552;2023-04-01T03:16:09;988.2649795005235;;;8.7212824846826;0
55014;BME280;40916;51.632;5.552;2023-04-01T03:17:09;988.2796371913166;;;8.7212824846826;0
55014;BME280;40916;51.632;5.552;2023-04-01T03:18:09;988.3755612408206;;;8.742082876129398;0
55014;BME280;40916;51.632;5.552;2023-04-01T03:19:10;988.2715182296548;;;8.73514988207322;0
55014;BME280;40916;51.632;5.552;2023-04-01T03:20:10;988.4362596758926;;;8.769810158311216;0
55014;BME280;40916;51.632;5.552;2023-04-01T03:21:13;988.4106059648309;;;8.769810158311216;0
55014;BME280;40916;51.632;5.552;2023-04-01T03:22:10;988.2766172874806;;;8.742082876129398;0
55014;BME280;40916;51.632;5.552;2023-04-01T03:23:10;988.3352507308988;;;8.742082876129398;0
55014;BME280;40916;51.632;5.552;2023-04-01T03:24:10;988.3448089259053;;;8.73514988207322;0
55014;BME280;40916;51.632;5.552;2023-04-01T03:25:10;988.336827079464;;;8.714348081043497;0
55014;BME280;40916;51.632;5.552;2023-04-01T03:26:10;988.3221696032184;;;8.714348081043497;0
55014;BME280;40916;51.632;5.552;2023-04-01T03:27:10;988.3514845576028;;;8.714348081043497;0
55014;BME280;40916;51.632;5.552;2023-04-01T03:28:11;988.3836808495454;;;8.728216418308389;0
55014;BME280;40916;51.632;5.552;2023-04-01T03:29:11;988.3763518862334;;;8.728216418308389;0
55014;BME280;40916;51.632;5.552;2023-04-01T03:30:11;988.3301507828686;;;8.73514988207322;0
55014;BME280;40916;51.632;5.552;2023-04-01T03:31:11;988.4392945074133;;;8.749015400629151;0
55014;BME280;40916;51.632;5.552;2023-04-01T03:32:11;988.4093322248647;;;8.728216418308389;0
55014;BME280;40916;51.632;5.552;2023-04-01T03:33:11;988.3602545245177;;;8.7212824846826;0
55014;BME280;40916;51.632;5.552;2023-04-01T03:34:11;988.4488531137242;;;8.742082876129398;0
55014;BME280;40916;51.632;5.552;2023-04-01T03:35:11;988.2869660374231;;;8.7212824846826;0
55014;BME280;40916;51.632;5.552;2023-04-01T03:36:11;988.4152209208972;;;8.7212824846826;0
55014;BME280;40916;51.632;5.552;2023-04-01T03:37:12;988.4247719766917;;;8.714348081043497;0
55014;BME280;40916;51.632;5.552;2023-04-01T03:38:12;988.4430938388587;;;8.714348081043497;0
55014;BME280;40916;51.632;5.552;2023-04-01T03:39:12;988.3779110252002;;;8.700477863115552;0
55014;BME280;40916;51.632;5.552;2023-04-01T03:40:12;988.480510341701;;;8.700477863115552;0
55014;BME280;40916;51.632;5.552;2023-04-01T03:41:12;988.4218821494858;;;8.700477863115552;0
55014;BME280;40916;51.632;5.552;2023-04-01T03:42:12;988.4204345480604;;;8.693542048521653;0
55014;BME280;40916;51.632;5.552;2023-04-01T03:43:12;988.4644050228953;;;8.693542048521653;0
55014;BME280;40916;51.632;5.552;2023-04-01T03:44:13;988.3735648426238;;;8.679669007310867;0
55014;BME280;40916;51.632;5.552;2023-04-01T03:45:12;988.4644050228953;;;8.693542048521653;0
55014;BME280;40916;51.632;5.552;2023-04-01T03:46:16;988.4035608456298;;;8.700477863115552;0
55014;BME280;40916;51.632;5.552;2023-04-01T03:47:13;988.4263134543576;;;8.686605763304325;0
55014;BME280;40916;51.632;5.552;2023-04-01T03:48:13;988.4592908111196;;;8.686605763304325;0
55014;BME280;40916;51.632;5.552;2023-04-01T03:49:13;988.4966143146233;;;8.707413207238645;0
55014;BME280;40916;51.632;5.552;2023-04-01T03:50:13;988.4116568544282;;;8.686605763304325;0
55014;BME280;40916;51.632;5.552;2023-04-01T03:51:13;988.4402034562996;;;8.700477863115552;0
55014;BME280;40916;51.632;5.552;2023-04-01T03:52:13;988.4519625087888;;;8.686605763304325;0
55014;BME280;40916;51.632;5.552;2023-04-01T03:53:13;988.393391922178;;;8.65191727251959;0
55014;BME280;40916;51.632;5.552;2023-04-01T03:54:13;988.5772988125088;;;8.672731780388524;0
55014;BME280;40916;51.632;5.552;2023-04-01T03:55:14;988.5135729291655;;;8.631098520784985;0
55014;BME280;40916;51.632;5.552;2023-04-01T03:56:14;988.5340876933294;;;8.62415799307761;0
55014;BME280;40916;51.632;5.552;2023-04-01T03:57:14;988.5135729291655;;;8.631098520784985;0
55014;BME280;40916;51.632;5.552;2023-04-01T03:58:14;988.5355551848959;;;8.631098520784985;0
55014;BME280;40916;51.632;5.552;2023-04-01T03:59:14;988.4974162647643;;;8.589448269172419;0
55014;BME280;40916;51.632;5.552;2023-04-01T04:00:14;988.3904075681027;;;8.568616761007853;0
55014;BME280;40916;51.632;5.552;2023-04-01T04:02:14;988.5112934000634;;;8.568616761007853;0
55014;BME280;40916;51.632;5.552;2023-04-01T04:03:15;988.4651526845967;;;8.57556107023969;0
55014;BME280;40916;51.632;5.552;2023-04-01T04:04:15;988.5317888076023;;;8.561671978393957;0
55014;BME280;40916;51.632;5.552;2023-04-01T04:05:15;988.6131647161668;;;8.582504906243294;0
55014;BME280;40916;51.632;5.552;2023-04-01T04:06:15;988.5362349513234;;;8.582504906243294;0
55014;BME280;40916;51.632;5.552;2023-04-01T04:07:15;988.5223474598594;;;8.603333576421914;0
55014;BME280;40916;51.632;5.552;2023-04-01T04:08:15;988.5567921216974;;;8.610275521049463;0
55014;BME280;40916;51.632;5.552;2023-04-01T04:09:15;988.5728681661739;;;8.582504906243294;0
55014;BME280;40916;51.632;5.552;2023-04-01T04:10:15;988.5765314883092;;;8.582504906243294;0
55014;BME280;40916;51.632;5.552;2023-04-01T04:11:16;988.5640608299599;;;8.57556107023969;0
55014;BME280;40916;51.632;5.552;2023-04-01T04:12:15;988.6263363731152;;;8.57556107023969;0
55014;BME280;40916;51.632;5.552;2023-04-01T04:13:15;988.6160413827635;;;8.561671978393957;0
55014;BME280;40916;51.632;5.552;2023-04-01T04:14:16;988.6709887480877;;;8.561671978393957;0
55014;BME280;40916;51.632;5.552;2023-04-01T04:15:16;988.5990940535298;;;8.533888111039047;0
55014;BME280;40916;51.632;5.552;2023-04-01T04:16:16;988.6951427088774;;;8.55472672224412;0
55014;BME280;40916;51.632;5.552;2023-04-01T04:17:16;988.68917207806;;;8.52694095920521;0
55014;BME280;40916;51.632;5.552;2023-04-01T04:18:16;988.6745205537584;;;8.52694095920521;0
55014;BME280;40916;51.632;5.552;2023-04-01T04:19:16;988.7053191887065;;;8.533888111039047;0
55014;BME280;40916;51.632;5.552;2023-04-01T04:20:16;988.6861759429404;;;8.513045232464087;0
55014;BME280;40916;51.632;5.552;2023-04-01T04:21:16;988.6517107439195;;;8.50609665724815;0
55014;BME280;40916;51.632;5.552;2023-04-01T04:22:16;988.7271245036651;;;8.49914760726276;0
55014;BME280;40916;51.632;5.552;2023-04-01T04:23:17;988.7506040474866;;;8.50609665724815;0
55014;BME280;40916;51.632;5.552;2023-04-01T04:24:17;988.7732333206822;;;8.492198082353426;0
55014;BME280;40916;51.632;5.552;2023-04-01T04:25:17;988.7329446608679;;;8.492198082353426;0